Time;durP1;ratioP1;P1;durP2;ratioP2;P2;SDS_P1;SDS_P2;PMS_P1;PMS_P2;Temp;Humidity;BMP_temperature;BMP_pressure;BME280_temperature;BME280_humidity;BME280_pressure;Samples;Min_cycle;Max_cycle;Signal;HPM_P1;HPM_P2
2020/12/28 00:00:13;;;;;;;;;;;;;;;6.40;41.30;98357.47;5990731;23;99696;-91
2020/12/28 00:02:39;;;;;;;;;;;;;;;6.30;41.71;98370.25;5989494;23;98304;-91
2020/12/28 00:05:06;;;;;;;;;;;;;;;6.27;41.73;98359.09;5995798;23;96620;-89
2020/12/28 00:07:40;;;;;;;;;;;;;;;6.53;41.45;98349.75;5993348;23;96654;-90
2020/12/28 00:10:08;;;;;;;;;;;;;;;6.65;41.45;98347.25;5994755;23;98221;-89
2020/12/28 00:12:46;;;;;;;;;;;;;;;6.51;41.45;98347.22;5992761;23;96907;-90
2020/12/28 00:15:14;;;;;;;;;;;;;;;6.98;40.84;98343.63;5993287;23;96439;-89
2020/12/28 00:17:40;;;;;;;;;;;;;;;6.73;41.09;98347.69;5991362;23;96433;-89
2020/12/28 00:20:06;;;;;;;;;;;;;;;6.27;42.22;98348.59;5991709;23;97859;-89
2020/12/28 00:22:33;;;;;;;;;;;;;;;6.80;41.39;98335.88;5990566;23;97027;-88
2020/12/28 00:24:59;;;;;;;;;;;;;;;6.66;41.95;98325.34;5990680;23;96718;-88
2020/12/28 00:27:25;;;;;;;;;;;;;;;7.00;41.02;98312.88;5994273;23;96447;-88
2020/12/28 00:29:51;;;;;;;;;;;;;;;6.92;41.54;98325.59;5995966;23;98395;-90
2020/12/28 00:32:19;;;;;;;;;;;;;;;6.66;41.91;98325.34;5995112;23;97607;-89
2020/12/28 00:34:46;;;;;;;;;;;;;;;6.87;41.55;98319.78;5999265;23;96451;-88
2020/12/28 00:37:12;;;;;;;;;;;;;;;6.44;42.40;98324.88;5997196;23;96550;-91
2020/12/28 00:39:38;;;;;;;;;;;;;;;6.16;43.17;98322.13;5998964;23;98249;-88
2020/12/28 00:42:04;;;;;;;;;;;;;;;6.43;42.90;98319.75;5998207;23;97527;-89
2020/12/28 00:44:30;;;;;;;;;;;;;;;6.20;43.70;98326.25;6000960;23;96512;-89
2020/12/28 00:46:56;;;;;;;;;;;;;;;6.31;43.50;98316.00;6000166;23;96322;-89
2020/12/28 00:49:23;;;;;;;;;;;;;;;6.75;42.90;98314.31;5999081;23;99277;-89
2020/12/28 00:51:49;;;;;;;;;;;;;;;6.16;44.14;98304.63;5999620;23;97092;-90
2020/12/28 00:54:15;;;;;;;;;;;;;;;6.14;44.40;98310.88;5999791;23;95884;-84
2020/12/28 00:56:42;;;;;;;;;;;;;;;6.24;44.31;98293.69;5999926;23;95912;-83
2020/12/28 00:59:08;;;;;;;;;;;;;;;6.32;44.50;98286.22;5998221;23;97847;-83
2020/12/28 01:01:34;;;;;;;;;;;;;;;6.13;45.03;98289.06;5998320;23;97555;-89
2020/12/28 01:04:08;;;;;;;;;;;;;;;6.42;44.59;98295.28;5994309;23;97109;-88
2020/12/28 01:06:35;;;;;;;;;;;;;;;6.56;44.43;98292.72;5990508;23;96732;-88
2020/12/28 01:09:03;;;;;;;;;;;;;;;6.39;45.22;98285.78;5990918;23;98265;-90
2020/12/28 01:14:10;;;;;;;;;;;;;;;6.42;45.09;98274.28;5991103;23;96359;-88
2020/12/28 01:16:35;;;;;;;;;;;;;;;6.15;45.75;98279.34;5988950;23;96606;-89
2020/12/28 01:19:01;;;;;;;;;;;;;;;6.30;45.91;98280.25;5989080;23;98759;-89
2020/12/28 01:21:29;;;;;;;;;;;;;;;6.57;45.34;98268.13;5991134;23;98821;-89
2020/12/28 01:23:56;;;;;;;;;;;;;;;6.23;46.69;98253.53;5993858;23;96516;-89
2020/12/28 01:26:22;;;;;;;;;;;;;;;6.26;46.29;98247.25;5995967;23;96553;-88
2020/12/28 01:28:49;;;;;;;;;;;;;;;6.64;45.72;98224.88;5997412;23;97658;-90
2020/12/28 01:31:15;;;;;;;;;;;;;;;6.76;45.26;98228.56;5998485;23;98033;-87
2020/12/28 01:33:43;;;;;;;;;;;;;;;6.47;46.55;98227.66;5999695;23;95805;-89
2020/12/28 01:36:12;;;;;;;;;;;;;;;6.59;46.43;98229.53;5996255;23;96249;-90
2020/12/28 01:38:38;;;;;;;;;;;;;;;6.70;46.26;98242.00;5995952;23;98242;-90
2020/12/28 01:41:04;;;;;;;;;;;;;;;6.56;46.76;98245.47;5991782;23;99451;-90
2020/12/28 01:43:31;;;;;;;;;;;;;;;6.72;46.43;98264.63;5992751;23;96669;-87
2020/12/28 01:46:00;;;;;;;;;;;;;;;6.57;47.04;98260.25;5996687;23;96727;-89
2020/12/28 01:48:26;;;;;;;;;;;;;;;6.17;47.98;98259.09;5996485;23;100111;-91
2020/12/28 01:53:42;;;;;;;;;;;;;;;6.28;48.03;98266.38;5993982;23;96714;-91
2020/12/28 01:56:09;;;;;;;;;;;;;;;6.45;48.25;98268.00;5999441;23;97700;-88
2020/12/28 01:58:35;;;;;;;;;;;;;;;6.64;47.93;98258.97;5999906;23;97822;-90
2020/12/28 02:01:01;;;;;;;;;;;;;;;6.92;47.10;98260.81;5999580;23;98301;-88
2020/12/28 02:03:27;;;;;;;;;;;;;;;6.91;47.27;98250.41;5999857;23;96310;-90
2020/12/28 02:05:53;;;;;;;;;;;;;;;6.57;47.86;98260.25;5999645;23;95876;-89
2020/12/28 02:08:19;;;;;;;;;;;;;;;7.06;46.84;98255.59;5999600;23;98265;-84
2020/12/28 02:10:45;;;;;;;;;;;;;;;7.19;46.67;98247.78;5998498;23;97896;-86
2020/12/28 02:13:12;;;;;;;;;;;;;;;6.85;47.93;98250.75;5999958;23;96348;-85
2020/12/28 02:15:38;;;;;;;;;;;;;;;6.95;47.64;98260.66;5999697;23;96032;-88
2020/12/28 02:18:05;;;;;;;;;;;;;;;6.63;48.72;98267.78;6000003;23;99491;-78
2020/12/28 02:20:30;;;;;;;;;;;;;;;6.65;48.81;98268.53;5999228;23;96210;-81
2020/12/28 02:22:57;;;;;;;;;;;;;;;6.43;49.33;98273.38;6000253;23;97079;-85
2020/12/28 02:25:23;;;;;;;;;;;;;;;6.58;49.08;98268.97;5999374;23;96313;-88
2020/12/28 02:27:49;;;;;;;;;;;;;;;7.13;47.46;98259.53;5998467;23;96831;-90
2020/12/28 02:30:15;;;;;;;;;;;;;;;6.85;48.08;98261.25;5998575;23;98445;-86
2020/12/28 02:32:41;;;;;;;;;;;;;;;6.93;48.11;98259.03;5999255;23;96789;-88
2020/12/28 02:35:07;;;;;;;;;;;;;;;7.03;47.74;98253.13;6000207;23;95966;-85
2020/12/28 02:37:32;;;;;;;;;;;;;;;6.61;49.39;98268.81;5999780;23;97027;-89
2020/12/28 02:39:59;;;;;;;;;;;;;;;6.47;49.23;98259.13;5999290;23;98074;-89
2020/12/28 02:42:25;;;;;;;;;;;;;;;6.68;48.92;98250.00;5993975;23;96464;-90
2020/12/28 02:44:52;;;;;;;;;;;;;;;6.97;48.26;98255.28;5999721;23;96117;-83
2020/12/28 02:47:18;;;;;;;;;;;;;;;6.84;48.64;98249.06;6000137;23;97003;-88
2020/12/28 02:49:44;;;;;;;;;;;;;;;6.72;48.94;98238.38;5999766;23;96582;-87
2020/12/28 02:52:10;;;;;;;;;;;;;;;6.54;49.61;98238.63;6000059;23;95886;-86
2020/12/28 02:54:36;;;;;;;;;;;;;;;7.03;48.43;98229.50;5998800;23;96624;-90
2020/12/28 02:57:02;;;;;;;;;;;;;;;7.20;48.08;98231.09;5999222;23;98127;-82
2020/12/28 02:59:28;;;;;;;;;;;;;;;7.31;47.56;98236.53;5999530;23;97168;-87
2020/12/28 03:01:54;;;;;;;;;;;;;;;7.08;48.36;98227.47;5999900;23;97451;-80
2020/12/28 03:04:20;;;;;;;;;;;;;;;7.00;48.57;98228.84;5999913;23;95945;-87
2020/12/28 03:06:46;;;;;;;;;;;;;;;6.92;48.66;98226.69;5999382;23;97357;-90
2020/12/28 03:09:12;;;;;;;;;;;;;;;6.97;48.67;98226.41;5999450;23;98747;-87
2020/12/28 03:11:38;;;;;;;;;;;;;;;6.67;49.14;98237.81;6000512;23;95967;-84
2020/12/28 03:14:05;;;;;;;;;;;;;;;6.88;48.97;98229.59;5999622;23;96007;-83
2020/12/28 03:16:31;;;;;;;;;;;;;;;6.69;49.77;98224.63;5999306;23;100425;-90
2020/12/28 03:18:57;;;;;;;;;;;;;;;6.72;49.72;98229.66;5998367;23;99961;-88
2020/12/28 03:21:23;;;;;;;;;;;;;;;6.97;49.17;98223.78;5999468;23;96660;-85
2020/12/28 03:23:49;;;;;;;;;;;;;;;6.96;49.00;98217.66;5999152;23;96013;-90
2020/12/28 03:26:15;;;;;;;;;;;;;;;6.84;49.39;98226.28;5996514;23;96787;-89
2020/12/28 03:28:41;;;;;;;;;;;;;;;6.52;50.21;98232.63;5991107;23;98029;-88
2020/12/28 03:31:08;;;;;;;;;;;;;;;6.74;49.99;98233.03;5990856;23;96672;-89
2020/12/28 03:33:34;;;;;;;;;;;;;;;6.66;50.06;98236.13;5989680;23;96593;-89
2020/12/28 03:36:00;;;;;;;;;;;;;;;6.77;49.92;98228.44;5995890;23;99003;-89
2020/12/28 03:38:26;;;;;;;;;;;;;;;6.58;50.63;98233.09;6000556;23;97008;-83
2020/12/28 03:40:52;;;;;;;;;;;;;;;6.67;50.58;98222.06;6001235;23;96435;-83
2020/12/28 03:43:18;;;;;;;;;;;;;;;6.61;50.72;98218.97;5999089;23;96000;-88
2020/12/28 03:45:45;;;;;;;;;;;;;;;6.54;50.89;98184.38;5998572;23;98334;-89
2020/12/28 03:48:12;;;;;;;;;;;;;;;6.79;50.29;98168.84;5994612;23;97750;-88
2020/12/28 03:50:38;;;;;;;;;;;;;;;6.94;49.97;98167.06;5992018;23;96579;-88
2020/12/28 03:53:04;;;;;;;;;;;;;;;6.89;49.96;98177.00;5990747;23;96758;-87
2020/12/28 03:55:33;;;;;;;;;;;;;;;6.80;50.34;98177.56;5996393;23;97006;-89
2020/12/28 03:57:59;;;;;;;;;;;;;;;6.93;49.68;98177.66;5989801;23;97782;-88
2020/12/28 04:00:25;;;;;;;;;;;;;;;7.10;49.68;98169.56;5992725;23;96629;-89
2020/12/28 04:02:50;;;;;;;;;;;;;;;7.11;49.62;98160.75;5991930;23;96715;-89
2020/12/28 04:05:17;;;;;;;;;;;;;;;7.20;49.19;98158.41;5990118;23;96869;-89
2020/12/28 04:07:43;;;;;;;;;;;;;;;7.24;49.12;98151.16;5999862;23;98137;-83
2020/12/28 04:10:09;;;;;;;;;;;;;;;6.99;49.77;98154.50;6000482;23;95948;-80
2020/12/28 04:12:35;;;;;;;;;;;;;;;7.13;49.62;98143.97;6000555;23;96736;-82
2020/12/28 04:15:01;;;;;;;;;;;;;;;7.22;49.44;98134.66;6000326;23;98151;-86
2020/12/28 04:17:27;;;;;;;;;;;;;;;6.86;50.52;98134.34;6000582;23;98633;-83
2020/12/28 04:19:53;;;;;;;;;;;;;;;6.85;50.59;98130.88;6000510;23;95958;-81
2020/12/28 04:22:19;;;;;;;;;;;;;;;6.82;50.23;98131.06;6000144;23;95955;-87
2020/12/28 04:24:45;;;;;;;;;;;;;;;6.86;50.63;98129.09;5998914;23;99056;-89
2020/12/28 04:27:11;;;;;;;;;;;;;;;6.84;50.67;98141.44;5993162;23;98035;-88
2020/12/28 04:29:38;;;;;;;;;;;;;;;7.11;50.09;98129.25;5991182;23;96544;-88
2020/12/28 04:32:04;;;;;;;;;;;;;;;7.11;50.12;98143.22;5981794;23;97070;-86
2020/12/28 04:34:29;;;;;;;;;;;;;;;6.88;50.57;98142.97;5991468;23;96622;-86
2020/12/28 04:36:56;;;;;;;;;;;;;;;6.92;51.00;98133.97;5996778;23;98011;-86
2020/12/28 04:39:22;;;;;;;;;;;;;;;7.14;50.48;98129.06;5987976;23;96617;-87
2020/12/28 04:41:48;;;;;;;;;;;;;;;7.13;50.36;98127.38;5990784;23;96716;-87
2020/12/28 04:44:14;;;;;;;;;;;;;;;7.09;50.49;98134.59;5996623;23;99638;-83
2020/12/28 04:46:40;;;;;;;;;;;;;;;6.97;50.89;98121.38;5999717;23;97780;-88
2020/12/28 04:49:06;;;;;;;;;;;;;;;6.82;51.13;98114.47;6000575;23;96252;-89
2020/12/28 04:51:35;;;;;;;;;;;;;;;6.82;51.15;98115.31;5996554;23;96512;-88
2020/12/28 04:54:03;;;;;;;;;;;;;;;6.91;51.25;98113.88;5992157;23;97927;-88
2020/12/28 04:56:30;;;;;;;;;;;;;;;6.85;51.39;98115.13;5998327;23;97979;-87
2020/12/28 04:58:56;;;;;;;;;;;;;;;6.65;52.11;98123.38;5998249;23;96642;-81
2020/12/28 05:01:22;;;;;;;;;;;;;;;6.82;51.95;98124.97;5996876;23;96345;-87
2020/12/28 05:03:49;;;;;;;;;;;;;;;6.76;51.91;98118.34;5994491;23;98080;-87
2020/12/28 05:06:15;;;;;;;;;;;;;;;6.80;51.63;98111.94;5994360;23;98147;-87
2020/12/28 05:08:44;;;;;;;;;;;;;;;6.64;52.02;98105.94;5990940;23;96756;-87
2020/12/28 05:11:12;;;;;;;;;;;;;;;6.81;51.88;98113.63;5993807;23;96639;-87
2020/12/28 05:13:39;;;;;;;;;;;;;;;7.29;50.55;98109.69;5995365;23;99742;-86
2020/12/28 05:16:05;;;;;;;;;;;;;;;6.78;51.96;98119.06;5994705;23;100305;-88
2020/12/28 05:18:32;;;;;;;;;;;;;;;6.86;51.67;98113.34;5990213;23;96944;-87
2020/12/28 05:20:58;;;;;;;;;;;;;;;7.03;51.37;98118.38;5989387;23;96543;-87
2020/12/28 05:23:26;;;;;;;;;;;;;;;6.69;52.02;98117.00;5987383;23;101084;-87
2020/12/28 05:28:38;;;;;;;;;;;;;;;7.15;51.10;98117.63;6017371;23;96930;-88
2020/12/28 05:31:06;;;;;;;;;;;;;;;6.74;51.93;98113.16;6027555;23;96720;-86
2020/12/28 05:33:32;;;;;;;;;;;;;;;6.96;51.58;98110.03;6027488;23;98225;-85
2020/12/28 05:35:58;;;;;;;;;;;;;;;7.05;51.63;98100.75;6027966;23;96918;-87
2020/12/28 05:38:26;;;;;;;;;;;;;;;7.32;50.60;98100.78;6028763;23;96548;-84
2020/12/28 05:41:00;;;;;;;;;;;;;;;6.69;52.29;98096.88;6003976;23;95956;-82
2020/12/28 05:43:28;;;;;;;;;;;;;;;6.98;51.63;98094.19;6028719;23;100223;-81
2020/12/28 05:45:55;;;;;;;;;;;;;;;7.15;51.21;98091.38;6027599;23;99604;-82
2020/12/28 05:48:23;;;;;;;;;;;;;;;7.23;51.17;98091.69;6028938;23;96201;-82
2020/12/28 05:50:54;;;;;;;;;;;;;;;7.20;50.90;98105.03;6028866;23;95933;-84
2020/12/28 05:53:22;;;;;;;;;;;;;;;7.07;51.47;98088.38;6028474;23;97680;-86
2020/12/28 05:55:50;;;;;;;;;;;;;;;6.90;52.12;98081.53;6026873;23;98658;-86
2020/12/28 05:58:17;;;;;;;;;;;;;;;6.93;51.91;98073.50;6027650;23;95903;-88
2020/12/28 06:00:44;;;;;;;;;;;;;;;6.66;52.63;98083.06;6023982;23;96537;-87
2020/12/28 06:03:12;;;;;;;;;;;;;;;6.93;52.01;98075.28;6016276;23;99242;-87
2020/12/28 06:05:41;;;;;;;;;;;;;;;7.13;51.57;98073.06;6017432;23;96893;-87
2020/12/28 06:08:07;;;;;;;;;;;;;;;6.76;52.64;98061.41;6023413;23;96496;-87
2020/12/28 06:10:34;;;;;;;;;;;;;;;6.66;53.14;98062.94;6028582;23;95932;-83
2020/12/28 06:13:01;;;;;;;;;;;;;;;6.73;52.77;98076.50;6021799;23;99425;-88
2020/12/28 06:15:33;;;;;;;;;;;;;;;6.64;52.66;98079.69;6016356;23;100551;-88
2020/12/28 06:17:58;;;;;;;;;;;;;;;6.71;52.80;98087.09;6017521;23;96708;-89
2020/12/28 06:20:30;;;;;;;;;;;;;;;6.95;52.33;98097.03;6016294;23;96757;-88
2020/12/28 06:23:09;;;;;;;;;;;;;;;6.71;52.58;98123.84;6016368;23;96682;-87
2020/12/28 06:25:35;;;;;;;;;;;;;;;6.81;52.65;98108.38;6016366;23;100457;-88
2020/12/28 06:28:02;;;;;;;;;;;;;;;6.65;53.28;98095.34;6017250;23;96636;-87
2020/12/28 06:30:28;;;;;;;;;;;;;;;6.68;53.24;98089.09;6017284;23;96802;-87
2020/12/28 06:33:01;;;;;;;;;;;;;;;6.73;52.81;98093.09;6016655;23;101053;-88
2020/12/28 06:35:36;;;;;;;;;;;;;;;7.13;51.67;98074.84;6017215;23;100531;-88
2020/12/28 06:38:05;;;;;;;;;;;;;;;6.88;52.42;98078.19;6016574;23;96552;-88
2020/12/28 06:40:32;;;;;;;;;;;;;;;6.72;53.21;98067.78;6015802;23;96862;-88
2020/12/28 06:43:11;;;;;;;;;;;;;;;6.95;52.30;98079.50;6015605;23;100098;-88
2020/12/28 06:45:46;;;;;;;;;;;;;;;7.27;51.62;98073.97;6015155;23;97622;-89
2020/12/28 06:48:19;;;;;;;;;;;;;;;7.47;50.99;98063.03;6015951;23;96476;-88
2020/12/28 06:50:44;;;;;;;;;;;;;;;7.06;51.91;98060.44;6017193;23;96596;-87
2020/12/28 06:53:11;;;;;;;;;;;;;;;7.29;51.37;98059.78;6019188;23;98222;-89
2020/12/28 06:55:37;;;;;;;;;;;;;;;7.41;50.57;98063.44;6026254;23;98144;-88
2020/12/28 06:58:03;;;;;;;;;;;;;;;7.39;50.88;98058.25;6027616;23;96620;-82
2020/12/28 07:00:29;;;;;;;;;;;;;;;7.27;51.19;98059.06;6026859;23;96171;-88
2020/12/28 07:02:56;;;;;;;;;;;;;;;7.41;50.75;98050.28;6027275;23;98125;-84
2020/12/28 07:05:23;;;;;;;;;;;;;;;7.56;50.47;98042.22;6028413;23;96903;-89
2020/12/28 07:07:50;;;;;;;;;;;;;;;7.59;50.27;98033.31;6028146;23;96398;-85
2020/12/28 07:13:01;;;;;;;;;;;;;;;7.14;51.59;98029.28;6028877;23;98897;-82
2020/12/28 07:15:27;;;;;;;;;;;;;;;7.13;51.60;98030.22;6029449;23;98270;-85
2020/12/28 07:17:53;;;;;;;;;;;;;;;7.30;51.25;98029.09;6028054;23;96512;-86
2020/12/28 07:20:19;;;;;;;;;;;;;;;7.32;51.25;98035.97;6026652;23;96538;-87
2020/12/28 07:22:45;;;;;;;;;;;;;;;7.27;51.51;98040.66;6024352;23;100708;-90
2020/12/28 07:25:12;;;;;;;;;;;;;;;7.08;51.94;98048.91;6023673;23;98176;-85
2020/12/28 07:27:40;;;;;;;;;;;;;;;7.30;51.34;98045.72;6021634;23;96588;-86
2020/12/28 07:30:06;;;;;;;;;;;;;;;7.20;51.49;98049.88;6022375;23;96726;-87
2020/12/28 07:32:33;;;;;;;;;;;;;;;7.22;51.55;98047.16;6027509;23;98913;-85
2020/12/28 07:37:41;;;;;;;;;;;;;;;7.52;50.80;98045.16;6027859;23;95908;-84
2020/12/28 07:40:07;;;;;;;;;;;;;;;7.04;52.33;98051.78;6001666;23;97103;-88
2020/12/28 07:42:33;;;;;;;;;;;;;;;7.09;52.17;98060.22;6023379;23;100215;-89
2020/12/28 07:45:01;;;;;;;;;;;;;;;7.15;52.07;98065.91;6021894;23;98939;-87
2020/12/28 07:47:32;;;;;;;;;;;;;;;6.97;52.66;98066.25;6020134;23;96875;-87
2020/12/28 07:50:01;;;;;;;;;;;;;;;7.19;51.87;98062.19;6018130;23;96934;-87
2020/12/28 07:52:29;;;;;;;;;;;;;;;7.19;51.86;98069.22;5992730;23;97686;-88
2020/12/28 07:54:58;;;;;;;;;;;;;;;7.44;51.54;98066.69;6017113;23;98519;-86
2020/12/28 07:57:30;;;;;;;;;;;;;;;7.34;51.77;98065.59;6013168;23;96812;-86
2020/12/28 08:00:03;;;;;;;;;;;;;;;7.49;51.43;98074.25;6020569;23;96693;-85
2020/12/28 08:02:44;;;;;;;;;;;;;;;6.55;54.09;98081.13;6024037;23;98346;-85
2020/12/28 08:05:11;;;;;;;;;;;;;;;6.92;53.15;98079.69;6015104;23;97783;-86
2020/12/28 08:07:37;;;;;;;;;;;;;;;6.97;52.71;98090.72;6016222;23;96743;-87
2020/12/28 08:10:06;;;;;;;;;;;;;;;7.28;52.18;98092.28;6016555;23;97252;-87
2020/12/28 08:12:32;;;;;;;;;;;;;;;7.20;52.42;98102.41;6014985;23;101122;-85
2020/12/28 08:14:58;;;;;;;;;;;;;;;7.26;52.30;98102.03;6013387;23;97716;-87
2020/12/28 08:17:25;;;;;;;;;;;;;;;7.38;51.72;98087.25;6014185;23;97397;-86
2020/12/28 08:19:53;;;;;;;;;;;;;;;7.10;52.46;98090.78;6014233;23;96825;-88
2020/12/28 08:22:20;;;;;;;;;;;;;;;7.44;51.87;98092.09;6014557;23;96987;-87
2020/12/28 08:24:46;;;;;;;;;;;;;;;7.21;52.41;98090.97;6015154;23;96779;-86
2020/12/28 08:27:12;;;;;;;;;;;;;;;7.39;51.87;98089.78;6016464;23;96693;-85
2020/12/28 08:29:38;;;;;;;;;;;;;;;7.27;52.53;98085.31;6015106;23;97136;-85
2020/12/28 08:32:04;;;;;;;;;;;;;;;7.58;51.13;98092.91;6015482;23;97015;-85
2020/12/28 08:34:31;;;;;;;;;;;;;;;7.56;51.24;98086.91;6017933;23;96631;-86
2020/12/28 08:36:57;;;;;;;;;;;;;;;7.85;50.63;98092.03;6015954;23;96740;-85
2020/12/28 08:39:24;;;;;;;;;;;;;;;7.54;51.20;98091.44;6018115;23;96808;-86
2020/12/28 08:41:53;;;;;;;;;;;;;;;7.36;51.65;98076.84;6020751;23;98230;-84
2020/12/28 08:44:26;;;;;;;;;;;;;;;7.36;51.81;98081.25;6022303;23;99678;-87
2020/12/28 08:46:52;;;;;;;;;;;;;;;7.38;51.71;98074.13;6023992;23;96617;-87
2020/12/28 08:49:24;;;;;;;;;;;;;;;7.72;51.03;98070.97;6022419;23;96680;-87
2020/12/28 08:51:52;;;;;;;;;;;;;;;7.73;50.67;98077.91;6020485;23;96927;-86
2020/12/28 08:54:24;;;;;;;;;;;;;;;7.79;50.83;98074.88;6016476;23;97399;-86
2020/12/28 08:56:50;;;;;;;;;;;;;;;7.97;50.30;98070.19;6019613;23;96820;-87
2020/12/28 08:59:16;;;;;;;;;;;;;;;7.90;50.27;98064.50;6017269;23;96865;-87
2020/12/28 09:01:44;;;;;;;;;;;;;;;7.98;49.99;98062.19;6019109;23;97762;-86
2020/12/28 09:07:06;;;;;;;;;;;;;;;7.55;51.13;98061.56;6021003;23;96710;-87
2020/12/28 09:09:33;;;;;;;;;;;;;;;8.06;49.76;98060.84;6020603;23;96576;-89
2020/12/28 09:11:59;;;;;;;;;;;;;;;7.78;50.37;98056.56;6019528;23;100488;-88
2020/12/28 09:14:24;;;;;;;;;;;;;;;7.99;49.82;98063.03;6017684;23;98161;-87
2020/12/28 09:16:51;;;;;;;;;;;;;;;7.55;50.94;98064.19;6019367;23;96693;-87
2020/12/28 09:21:58;;;;;;;;;;;;;;;7.64;51.08;98068.00;6019407;23;98492;-88
2020/12/28 09:27:13;;;;;;;;;;;;;;;7.63;50.89;98073.34;6021607;23;96474;-87
2020/12/28 09:29:39;;;;;;;;;;;;;;;7.96;50.21;98071.13;6023928;23;96173;-86
2020/12/28 09:32:07;;;;;;;;;;;;;;;7.94;50.20;98070.41;6024799;23;99970;-87
2020/12/28 09:34:33;;;;;;;;;;;;;;;8.09;49.62;98074.59;6026512;23;98300;-84
2020/12/28 09:37:00;;;;;;;;;;;;;;;8.18;49.40;98073.16;6028225;23;96005;-83
2020/12/28 09:39:26;;;;;;;;;;;;;;;8.12;49.59;98066.53;6003672;23;96416;-82
2020/12/28 09:44:33;;;;;;;;;;;;;;;7.68;50.47;98074.72;6025190;23;97254;-87
2020/12/28 09:46:59;;;;;;;;;;;;;;;8.00;49.57;98076.09;6028900;23;96068;-84
2020/12/28 09:49:26;;;;;;;;;;;;;;;7.59;50.49;98070.94;6029272;23;96374;-81
2020/12/28 09:51:53;;;;;;;;;;;;;;;7.98;50.02;98079.75;6027663;23;96505;-83
2020/12/28 09:54:20;;;;;;;;;;;;;;;8.10;49.44;98071.03;6025945;23;99231;-85
2020/12/28 09:56:46;;;;;;;;;;;;;;;7.84;49.91;98064.91;6028439;23;96338;-83
2020/12/28 09:59:12;;;;;;;;;;;;;;;8.35;49.08;98073.72;6026049;23;96792;-85
2020/12/28 10:01:38;;;;;;;;;;;;;;;8.11;49.38;98064.84;6026000;23;99005;-85
2020/12/28 10:04:04;;;;;;;;;;;;;;;8.28;49.06;98075.03;6025744;23;98191;-84
2020/12/28 10:06:34;;;;;;;;;;;;;;;7.89;50.13;98061.94;6027591;23;96276;-84
2020/12/28 10:09:00;;;;;;;;;;;;;;;8.56;48.74;98067.91;6026648;23;96503;-85
2020/12/28 10:11:26;;;;;;;;;;;;;;;8.25;48.93;98064.75;6028103;23;98885;-82
2020/12/28 10:13:54;;;;;;;;;;;;;;;8.59;48.49;98070.34;6027807;23;98205;-87
2020/12/28 10:16:21;;;;;;;;;;;;;;;8.27;48.81;98068.09;6026476;23;96377;-87
2020/12/28 10:24:33;;;;;;;;;;;;;;;8.28;48.72;98061.88;6023607;23;98793;-90
2020/12/28 10:27:02;;;;;;;;;;;;;;;8.87;47.73;98048.16;6022995;23;96644;-89
2020/12/28 10:29:28;;;;;;;;;;;;;;;9.00;47.20;98052.44;5997454;23;96473;-87
2020/12/28 10:31:55;;;;;;;;;;;;;;;8.62;47.86;98046.44;6022282;23;97841;-87
2020/12/28 10:34:43;;;;;;;;;;;;;;;8.68;48.17;98040.72;6021540;23;96897;-89
2020/12/28 10:37:10;;;;;;;;;;;;;;;8.80;47.97;98039.84;6021697;23;96508;-87
2020/12/28 10:39:36;;;;;;;;;;;;;;;9.04;46.81;98037.28;6022629;23;96559;-87
2020/12/28 10:42:03;;;;;;;;;;;;;;;9.14;47.02;98031.22;6018543;23;98079;-85
2020/12/28 10:44:29;;;;;;;;;;;;;;;9.09;46.73;98035.16;6015540;23;98927;-85
2020/12/28 10:46:54;;;;;;;;;;;;;;;9.09;46.99;98035.16;6018455;23;96614;-86
2020/12/28 10:49:21;;;;;;;;;;;;;;;8.95;47.18;98022.13;6024078;23;96731;-85
2020/12/28 10:51:47;;;;;;;;;;;;;;;9.23;46.50;98021.81;6023870;23;99487;-89
2020/12/28 10:54:15;;;;;;;;;;;;;;;8.95;46.70;98017.72;6026451;23;96652;-87
2020/12/28 10:56:42;;;;;;;;;;;;;;;8.72;47.63;98014.09;6025463;23;96594;-86
2020/12/28 10:59:09;;;;;;;;;;;;;;;8.72;47.77;98027.25;6027696;23;96426;-86
2020/12/28 11:01:34;;;;;;;;;;;;;;;9.05;47.21;98024.00;6027629;23;97122;-85
2020/12/28 11:04:02;;;;;;;;;;;;;;;9.09;46.95;98036.00;6026299;23;96678;-90
2020/12/28 11:06:29;;;;;;;;;;;;;;;8.60;47.75;98037.81;6028818;23;96305;-91
2020/12/28 11:08:55;;;;;;;;;;;;;;;8.85;47.53;98037.75;6026818;23;96576;-86
2020/12/28 11:11:26;;;;;;;;;;;;;;;9.23;46.40;98034.16;6023766;23;97046;-84
2020/12/28 11:13:52;;;;;;;;;;;;;;;8.85;47.28;98036.91;6022418;23;97059;-86
2020/12/28 11:16:24;;;;;;;;;;;;;;;8.99;46.92;98032.31;6019375;23;96617;-86
2020/12/28 11:18:54;;;;;;;;;;;;;;;8.80;47.44;98030.16;6021627;23;96608;-87
2020/12/28 11:21:22;;;;;;;;;;;;;;;8.69;47.82;98031.88;6019422;23;96954;-87
2020/12/28 11:24:01;;;;;;;;;;;;;;;8.89;47.35;98033.94;6021024;23;96938;-88
2020/12/28 11:26:31;;;;;;;;;;;;;;;8.26;48.47;98034.88;6019443;23;96739;-86
2020/12/28 11:29:06;;;;;;;;;;;;;;;8.37;48.48;98049.94;6020105;23;96609;-91
2020/12/28 11:31:35;;;;;;;;;;;;;;;8.42;48.53;98046.97;6013342;23;98015;-90
2020/12/28 11:36:38;;;;;;;;;;;;;;;8.26;48.55;98053.28;5967361;23;99202;-90
2020/12/28 11:39:04;;;;;;;;;;;;;;;8.63;48.00;98043.69;5992848;23;96484;-89
2020/12/28 11:41:32;;;;;;;;;;;;;;;8.88;47.33;98037.53;5999752;23;101553;-90
2020/12/28 11:44:00;;;;;;;;;;;;;;;9.00;47.02;98047.19;5995634;23;100117;-89
2020/12/28 11:49:09;;;;;;;;;;;;;;;8.38;48.40;98044.56;5993164;23;99930;-90
2020/12/28 11:51:37;;;;;;;;;;;;;;;8.29;48.76;98029.38;5995563;23;96971;-89
2020/12/28 11:54:06;;;;;;;;;;;;;;;8.49;48.28;98041.19;5994647;23;98607;-88
2020/12/28 11:56:37;;;;;;;;;;;;;;;8.57;48.29;98045.91;5991984;23;96562;-87
2020/12/28 11:59:03;;;;;;;;;;;;;;;8.58;48.41;98050.22;5992816;23;96679;-89
2020/12/28 12:01:29;;;;;;;;;;;;;;;8.57;48.16;98053.81;5987991;23;96590;-84
2020/12/28 12:03:57;;;;;;;;;;;;;;;8.88;47.91;98058.59;5989885;23;96714;-86
2020/12/28 12:06:25;;;;;;;;;;;;;;;8.73;47.76;98057.03;5993426;23;96732;-85
2020/12/28 12:11:36;;;;;;;;;;;;;;;9.12;46.95;98048.94;5990127;23;97049;-85
2020/12/28 12:14:04;;;;;;;;;;;;;;;9.32;46.32;98042.22;5991254;23;98862;-86
2020/12/28 12:16:37;;;;;;;;;;;;;;;9.27;46.41;98051.41;5991081;23;96556;-87
2020/12/28 12:19:02;;;;;;;;;;;;;;;9.27;46.18;98054.88;5988234;23;96625;-87
2020/12/28 12:21:28;;;;;;;;;;;;;;;9.39;46.25;98058.41;5989234;23;98949;-87
2020/12/28 12:24:00;;;;;;;;;;;;;;;9.18;46.35;98053.78;5991185;23;99790;-87
2020/12/28 12:26:26;;;;;;;;;;;;;;;8.73;47.63;98064.94;5989108;23;96775;-85
2020/12/28 12:28:53;;;;;;;;;;;;;;;8.74;47.74;98064.00;5989140;23;96822;-84
2020/12/28 12:31:20;;;;;;;;;;;;;;;8.93;47.42;98069.63;5991033;23;98139;-86
2020/12/28 12:33:46;;;;;;;;;;;;;;;9.01;47.59;98067.31;5992887;23;97837;-88
2020/12/28 12:36:13;;;;;;;;;;;;;;;8.92;47.47;98060.09;5988086;23;96841;-86
2020/12/28 12:38:38;;;;;;;;;;;;;;;9.31;47.02;98064.28;5992488;23;96724;-85
2020/12/28 12:41:05;;;;;;;;;;;;;;;9.14;47.16;98070.75;5993842;23;98293;-91
2020/12/28 12:46:15;;;;;;;;;;;;;;;8.89;47.87;98076.09;5992995;23;96576;-86
2020/12/28 12:48:43;;;;;;;;;;;;;;;8.88;47.76;98071.75;5991132;23;96820;-86
2020/12/28 12:51:09;;;;;;;;;;;;;;;9.01;47.60;98072.56;5991748;23;98125;-85
2020/12/28 12:53:35;;;;;;;;;;;;;;;9.12;47.47;98071.81;5990555;23;98162;-86
2020/12/28 12:56:01;;;;;;;;;;;;;;;9.11;47.38;98072.78;5993848;23;97012;-87
2020/12/28 12:58:27;;;;;;;;;;;;;;;9.02;47.41;98073.41;5997365;23;96558;-83
2020/12/28 13:00:53;;;;;;;;;;;;;;;9.23;46.87;98077.16;5997361;23;97012;-85
2020/12/28 13:03:19;;;;;;;;;;;;;;;9.36;46.32;98075.31;5997981;23;98055;-88
2020/12/28 13:05:48;;;;;;;;;;;;;;;9.00;47.61;98062.97;6002006;23;95951;-87
2020/12/28 13:08:14;;;;;;;;;;;;;;;9.11;47.36;98067.50;6000229;23;96296;-85
2020/12/28 13:10:39;;;;;;;;;;;;;;;9.29;46.89;98073.22;5999116;23;99664;-87
2020/12/28 13:13:05;;;;;;;;;;;;;;;9.32;46.63;98068.56;5997744;23;98501;-88
2020/12/28 13:15:31;;;;;;;;;;;;;;;9.18;46.79;98069.59;6000517;23;96649;-88
2020/12/28 13:17:57;;;;;;;;;;;;;;;9.10;47.26;98074.56;6001502;23;96035;-89
2020/12/28 13:20:23;;;;;;;;;;;;;;;9.54;46.63;98070.50;6000792;23;100402;-87
2020/12/28 13:22:50;;;;;;;;;;;;;;;9.43;46.76;98070.44;6000540;23;96876;-88
2020/12/28 13:25:16;;;;;;;;;;;;;;;9.06;47.29;98061.69;6000995;23;96553;-89
2020/12/28 13:27:42;;;;;;;;;;;;;;;9.59;46.13;98061.28;5994694;23;96789;-87
2020/12/28 13:30:10;;;;;;;;;;;;;;;9.52;46.43;98075.03;5990259;23;118820;-85
2020/12/28 13:32:36;;;;;;;;;;;;;;;9.63;46.03;98068.97;5995839;23;100076;-86
2020/12/28 13:35:02;;;;;;;;;;;;;;;9.70;45.85;98068.41;6001488;23;96292;-89